sensor_id;sensor_type;location;lat;lon;timestamp;P1;durP1;ratioP1;P2;durP2;ratioP2
6438;SDS011;3252;52.540;13.290;2023-04-23T00:01:49;8.83;;;5.37;;
6438;SDS011;3252;52.540;13.290;2023-04-23T00:03:56;9.63;;;5.70;;
6438;SDS011;3252;52.540;13.290;2023-04-23T00:05:59;10.97;;;5.60;;
6438;SDS011;3252;52.540;13.290;2023-04-23T00:08:06;11.90;;;5.83;;
6438;SDS011;3252;52.540;13.290;2023-04-23T00:10:11;9.03;;;5.57;;
6438;SDS011;3252;52.540;13.290;2023-04-23T00:12:13;9.50;;;5.80;;
6438;SDS011;3252;52.540;13.290;2023-04-23T00:14:16;11.50;;;6.30;;
6438;SDS011;3252;52.540;13.290;2023-04-23T00:16:19;13.17;;;5.83;;
6438;SDS011;3252;52.540;13.290;2023-04-23T00:18:21;9.80;;;5.90;;
6438;SDS011;3252;52.540;13.290;2023-04-23T00:20:23;9.03;;;5.90;;
6438;SDS011;3252;52.540;13.290;2023-04-23T00:22:25;9.50;;;5.83;;
6438;SDS011;3252;52.540;13.290;2023-04-23T00:24:29;9.03;;;5.70;;
6438;SDS011;3252;52.540;13.290;2023-04-23T00:26:33;7.93;;;5.63;;
6438;SDS011;3252;52.540;13.290;2023-04-23T00:28:35;10.10;;;5.90;;
6438;SDS011;3252;52.540;13.290;2023-04-23T00:30:37;11.00;;;5.87;;
6438;SDS011;3252;52.540;13.290;2023-04-23T00:32:40;13.57;;;5.57;;
6438;SDS011;3252;52.540;13.290;2023-04-23T00:34:43;12.67;;;6.03;;
6438;SDS011;3252;52.540;13.290;2023-04-23T00:36:48;9.53;;;5.77;;
6438;SDS011;3252;52.540;13.290;2023-04-23T00:38:50;9.63;;;5.70;;
6438;SDS011;3252;52.540;13.290;2023-04-23T00:40:54;12.27;;;5.50;;
6438;SDS011;3252;52.540;13.290;2023-04-23T00:42:56;11.83;;;5.73;;
6438;SDS011;3252;52.540;13.290;2023-04-23T00:45:00;10.70;;;5.80;;
6438;SDS011;3252;52.540;13.290;2023-04-23T00:47:03;10.93;;;6.27;;
6438;SDS011;3252;52.540;13.290;2023-04-23T00:49:06;13.73;;;5.90;;
6438;SDS011;3252;52.540;13.290;2023-04-23T00:51:09;12.27;;;6.20;;
6438;SDS011;3252;52.540;13.290;2023-04-23T00:53:12;12.07;;;5.87;;
6438;SDS011;3252;52.540;13.290;2023-04-23T00:55:14;12.77;;;6.00;;
6438;SDS011;3252;52.540;13.290;2023-04-23T00:57:21;9.57;;;5.37;;
6438;SDS011;3252;52.540;13.290;2023-04-23T00:59:24;10.73;;;5.90;;
6438;SDS011;3252;52.540;13.290;2023-04-23T01:01:27;11.77;;;5.73;;
6438;SDS011;3252;52.540;13.290;2023-04-23T01:03:29;9.07;;;6.13;;
6438;SDS011;3252;52.540;13.290;2023-04-23T01:05:33;8.93;;;5.70;;
6438;SDS011;3252;52.540;13.290;2023-04-23T01:07:35;9.53;;;6.07;;
6438;SDS011;3252;52.540;13.290;2023-04-23T01:09:38;10.53;;;5.80;;
6438;SDS011;3252;52.540;13.290;2023-04-23T01:11:41;8.27;;;5.73;;
6438;SDS011;3252;52.540;13.290;2023-04-23T01:13:45;9.63;;;5.90;;
6438;SDS011;3252;52.540;13.290;2023-04-23T01:15:48;9.33;;;5.60;;
6438;SDS011;3252;52.540;13.290;2023-04-23T01:17:50;10.23;;;6.07;;
6438;SDS011;3252;52.540;13.290;2023-04-23T01:19:53;9.03;;;6.03;;
6438;SDS011;3252;52.540;13.290;2023-04-23T01:21:55;8.57;;;5.90;;
6438;SDS011;3252;52.540;13.290;2023-04-23T01:24:02;11.20;;;6.17;;
6438;SDS011;3252;52.540;13.290;2023-04-23T01:26:05;11.87;;;6.20;;
6438;SDS011;3252;52.540;13.290;2023-04-23T01:28:08;13.87;;;5.60;;
6438;SDS011;3252;52.540;13.290;2023-04-23T01:30:11;12.77;;;6.30;;
6438;SDS011;3252;52.540;13.290;2023-04-23T01:32:14;10.83;;;6.07;;
6438;SDS011;3252;52.540;13.290;2023-04-23T01:34:17;10.47;;;6.10;;
6438;SDS011;3252;52.540;13.290;2023-04-23T01:36:21;11.03;;;6.03;;
6438;SDS011;3252;52.540;13.290;2023-04-23T01:38:25;13.13;;;6.20;;
6438;SDS011;3252;52.540;13.290;2023-04-23T01:40:32;9.30;;;5.73;;
6438;SDS011;3252;52.540;13.290;2023-04-23T01:42:35;8.70;;;6.33;;
6438;SDS011;3252;52.540;13.290;2023-04-23T01:44:38;10.40;;;6.33;;
6438;SDS011;3252;52.540;13.290;2023-04-23T01:46:41;12.30;;;6.37;;
6438;SDS011;3252;52.540;13.290;2023-04-23T01:48:43;10.73;;;6.97;;
6438;SDS011;3252;52.540;13.290;2023-04-23T01:50:47;18.13;;;6.60;;
6438;SDS011;3252;52.540;13.290;2023-04-23T01:52:50;13.00;;;6.90;;
6438;SDS011;3252;52.540;13.290;2023-04-23T01:54:53;14.17;;;7.43;;
6438;SDS011;3252;52.540;13.290;2023-04-23T01:56:57;13.53;;;7.27;;
6438;SDS011;3252;52.540;13.290;2023-04-23T01:59:00;13.10;;;7.37;;
6438;SDS011;3252;52.540;13.290;2023-04-23T02:01:03;16.50;;;7.70;;
6438;SDS011;3252;52.540;13.290;2023-04-23T02:03:05;13.37;;;8.03;;
6438;SDS011;3252;52.540;13.290;2023-04-23T02:05:09;12.30;;;7.93;;
6438;SDS011;3252;52.540;13.290;2023-04-23T02:07:12;12.63;;;8.27;;
6438;SDS011;3252;52.540;13.290;2023-04-23T02:09:14;13.07;;;8.33;;
6438;SDS011;3252;52.540;13.290;2023-04-23T02:11:16;12.20;;;8.33;;
6438;SDS011;3252;52.540;13.290;2023-04-23T02:13:20;12.43;;;8.97;;
6438;SDS011;3252;52.540;13.290;2023-04-23T02:15:22;13.43;;;8.20;;
6438;SDS011;3252;52.540;13.290;2023-04-23T02:17:25;15.37;;;8.57;;
6438;SDS011;3252;52.540;13.290;2023-04-23T02:19:28;16.80;;;9.07;;
6438;SDS011;3252;52.540;13.290;2023-04-23T02:21:35;17.87;;;9.00;;
6438;SDS011;3252;52.540;13.290;2023-04-23T02:23:37;10.37;;;8.10;;
6438;SDS011;3252;52.540;13.290;2023-04-23T02:25:39;11.57;;;8.40;;
6438;SDS011;3252;52.540;13.290;2023-04-23T02:27:42;12.27;;;8.67;;
6438;SDS011;3252;52.540;13.290;2023-04-23T02:29:46;13.90;;;8.63;;
6438;SDS011;3252;52.540;13.290;2023-04-23T02:31:49;14.40;;;8.83;;
6438;SDS011;3252;52.540;13.290;2023-04-23T02:33:51;18.63;;;9.23;;
6438;SDS011;3252;52.540;13.290;2023-04-23T02:35:54;14.13;;;8.77;;
6438;SDS011;3252;52.540;13.290;2023-04-23T02:37:56;15.00;;;8.70;;
6438;SDS011;3252;52.540;13.290;2023-04-23T02:39:59;13.77;;;9.00;;
6438;SDS011;3252;52.540;13.290;2023-04-23T02:42:01;16.43;;;9.33;;
6438;SDS011;3252;52.540;13.290;2023-04-23T02:44:03;12.63;;;8.93;;
6438;SDS011;3252;52.540;13.290;2023-04-23T02:46:07;13.03;;;8.27;;
6438;SDS011;3252;52.540;13.290;2023-04-23T02:48:10;17.97;;;9.80;;
6438;SDS011;3252;52.540;13.290;2023-04-23T02:50:12;19.00;;;9.03;;
6438;SDS011;3252;52.540;13.290;2023-04-23T02:52:15;14.37;;;8.63;;
6438;SDS011;3252;52.540;13.290;2023-04-23T02:54:18;11.53;;;8.57;;
6438;SDS011;3252;52.540;13.290;2023-04-23T02:56:20;13.07;;;9.33;;
6438;SDS011;3252;52.540;13.290;2023-04-23T02:58:23;14.37;;;8.90;;
6438;SDS011;3252;52.540;13.290;2023-04-23T03:00:27;12.37;;;8.40;;
6438;SDS011;3252;52.540;13.290;2023-04-23T03:02:32;14.60;;;9.37;;
6438;SDS011;3252;52.540;13.290;2023-04-23T03:04:34;13.57;;;9.27;;
6438;SDS011;3252;52.540;13.290;2023-04-23T03:06:37;13.33;;;9.20;;
6438;SDS011;3252;52.540;13.290;2023-04-23T03:08:39;14.77;;;9.93;;
6438;SDS011;3252;52.540;13.290;2023-04-23T03:10:41;12.80;;;10.27;;
6438;SDS011;3252;52.540;13.290;2023-04-23T03:12:43;18.03;;;9.13;;
6438;SDS011;3252;52.540;13.290;2023-04-23T03:14:46;13.57;;;9.53;;
6438;SDS011;3252;52.540;13.290;2023-04-23T03:16:49;20.53;;;10.17;;
6438;SDS011;3252;52.540;13.290;2023-04-23T03:18:52;13.70;;;9.43;;
6438;SDS011;3252;52.540;13.290;2023-04-23T03:20:55;15.13;;;9.87;;
6438;SDS011;3252;52.540;13.290;2023-04-23T03:22:57;14.30;;;10.27;;
6438;SDS011;3252;52.540;13.290;2023-04-23T03:24:59;13.77;;;9.53;;
6438;SDS011;3252;52.540;13.290;2023-04-23T03:27:01;14.27;;;9.23;;
6438;SDS011;3252;52.540;13.290;2023-04-23T03:29:03;14.67;;;9.93;;
6438;SDS011;3252;52.540;13.290;2023-04-23T03:31:06;14.77;;;10.00;;
6438;SDS011;3252;52.540;13.290;2023-04-23T03:33:09;12.47;;;9.47;;
6438;SDS011;3252;52.540;13.290;2023-04-23T03:35:12;16.67;;;9.80;;
6438;SDS011;3252;52.540;13.290;2023-04-23T03:37:18;16.03;;;10.07;;
6438;SDS011;3252;52.540;13.290;2023-04-23T03:39:21;13.33;;;9.67;;
6438;SDS011;3252;52.540;13.290;2023-04-23T03:41:27;12.53;;;9.03;;
6438;SDS011;3252;52.540;13.290;2023-04-23T03:43:29;12.77;;;10.20;;
6438;SDS011;3252;52.540;13.290;2023-04-23T03:45:37;13.03;;;9.40;;
6438;SDS011;3252;52.540;13.290;2023-04-23T03:47:40;14.87;;;8.53;;
6438;SDS011;3252;52.540;13.290;2023-04-23T03:49:43;13.73;;;8.93;;
6438;SDS011;3252;52.540;13.290;2023-04-23T03:51:48;14.03;;;9.00;;
6438;SDS011;3252;52.540;13.290;2023-04-23T03:53:51;12.60;;;8.50;;
6438;SDS011;3252;52.540;13.290;2023-04-23T03:56:29;11.07;;;7.80;;
6438;SDS011;3252;52.540;13.290;2023-04-23T03:58:57;13.57;;;8.67;;
6438;SDS011;3252;52.540;13.290;2023-04-23T04:01:00;11.30;;;8.97;;
6438;SDS011;3252;52.540;13.290;2023-04-23T04:03:02;12.23;;;9.00;;
6438;SDS011;3252;52.540;13.290;2023-04-23T04:05:05;12.13;;;8.67;;
6438;SDS011;3252;52.540;13.290;2023-04-23T04:07:11;13.30;;;9.23;;
6438;SDS011;3252;52.540;13.290;2023-04-23T04:09:13;13.43;;;8.73;;
6438;SDS011;3252;52.540;13.290;2023-04-23T04:11:41;11.63;;;8.37;;
6438;SDS011;3252;52.540;13.290;2023-04-23T04:13:43;13.13;;;9.37;;
6438;SDS011;3252;52.540;13.290;2023-04-23T04:15:45;15.20;;;9.87;;
6438;SDS011;3252;52.540;13.290;2023-04-23T04:17:47;13.73;;;9.07;;
6438;SDS011;3252;52.540;13.290;2023-04-23T04:19:49;13.30;;;8.90;;
6438;SDS011;3252;52.540;13.290;2023-04-23T04:21:52;14.87;;;9.23;;
6438;SDS011;3252;52.540;13.290;2023-04-23T04:23:55;12.57;;;7.90;;
6438;SDS011;3252;52.540;13.290;2023-04-23T04:25:58;10.73;;;6.97;;
6438;SDS011;3252;52.540;13.290;2023-04-23T04:28:00;11.90;;;8.10;;
6438;SDS011;3252;52.540;13.290;2023-04-23T04:30:03;12.00;;;7.93;;
6438;SDS011;3252;52.540;13.290;2023-04-23T04:32:06;13.83;;;8.50;;
6438;SDS011;3252;52.540;13.290;2023-04-23T04:34:08;10.60;;;7.73;;
6438;SDS011;3252;52.540;13.290;2023-04-23T04:36:13;10.43;;;7.93;;
6438;SDS011;3252;52.540;13.290;2023-04-23T04:38:16;10.03;;;6.27;;
6438;SDS011;3252;52.540;13.290;2023-04-23T04:40:20;10.93;;;7.43;;
6438;SDS011;3252;52.540;13.290;2023-04-23T04:42:22;13.17;;;8.10;;
6438;SDS011;3252;52.540;13.290;2023-04-23T04:44:25;10.40;;;7.07;;
6438;SDS011;3252;52.540;13.290;2023-04-23T04:46:27;12.60;;;6.83;;
6438;SDS011;3252;52.540;13.290;2023-04-23T04:48:31;10.20;;;6.17;;
6438;SDS011;3252;52.540;13.290;2023-04-23T04:50:33;8.70;;;5.73;;
6438;SDS011;3252;52.540;13.290;2023-04-23T04:52:35;10.50;;;5.53;;
6438;SDS011;3252;52.540;13.290;2023-04-23T04:54:38;9.40;;;5.97;;
6438;SDS011;3252;52.540;13.290;2023-04-23T04:56:42;7.70;;;5.60;;
6438;SDS011;3252;52.540;13.290;2023-04-23T04:58:44;10.00;;;5.60;;
6438;SDS011;3252;52.540;13.290;2023-04-23T05:00:46;10.67;;;5.07;;
6438;SDS011;3252;52.540;13.290;2023-04-23T05:02:51;8.73;;;5.03;;
6438;SDS011;3252;52.540;13.290;2023-04-23T05:04:53;10.20;;;5.10;;
6438;SDS011;3252;52.540;13.290;2023-04-23T05:06:55;8.97;;;5.33;;
6438;SDS011;3252;52.540;13.290;2023-04-23T05:08:57;8.93;;;5.37;;
6438;SDS011;3252;52.540;13.290;2023-04-23T05:11:00;11.43;;;5.80;;
6438;SDS011;3252;52.540;13.290;2023-04-23T05:13:04;12.53;;;5.60;;
6438;SDS011;3252;52.540;13.290;2023-04-23T05:15:07;7.83;;;5.73;;
6438;SDS011;3252;52.540;13.290;2023-04-23T05:17:10;10.47;;;5.20;;
6438;SDS011;3252;52.540;13.290;2023-04-23T05:19:12;10.37;;;5.40;;
6438;SDS011;3252;52.540;13.290;2023-04-23T05:21:14;13.50;;;5.50;;
6438;SDS011;3252;52.540;13.290;2023-04-23T05:23:17;8.60;;;5.37;;
6438;SDS011;3252;52.540;13.290;2023-04-23T05:25:19;14.10;;;9.33;;
6438;SDS011;3252;52.540;13.290;2023-04-23T05:27:21;14.77;;;9.50;;
6438;SDS011;3252;52.540;13.290;2023-04-23T05:29:25;10.17;;;5.13;;
6438;SDS011;3252;52.540;13.290;2023-04-23T05:31:27;7.50;;;5.00;;
6438;SDS011;3252;52.540;13.290;2023-04-23T05:33:29;8.37;;;5.47;;
6438;SDS011;3252;52.540;13.290;2023-04-23T05:35:32;7.93;;;5.40;;
6438;SDS011;3252;52.540;13.290;2023-04-23T05:37:34;8.70;;;5.87;;
6438;SDS011;3252;52.540;13.290;2023-04-23T05:39:36;11.63;;;6.20;;
6438;SDS011;3252;52.540;13.290;2023-04-23T05:41:38;7.67;;;5.30;;
6438;SDS011;3252;52.540;13.290;2023-04-23T05:43:41;11.93;;;6.83;;
6438;SDS011;3252;52.540;13.290;2023-04-23T05:45:45;12.20;;;9.23;;
6438;SDS011;3252;52.540;13.290;2023-04-23T05:47:47;12.00;;;6.57;;
6438;SDS011;3252;52.540;13.290;2023-04-23T05:49:49;28.47;;;21.53;;
6438;SDS011;3252;52.540;13.290;2023-04-23T05:51:51;15.63;;;10.40;;
6438;SDS011;3252;52.540;13.290;2023-04-23T05:53:53;8.33;;;5.10;;
6438;SDS011;3252;52.540;13.290;2023-04-23T05:55:55;6.93;;;4.90;;
6438;SDS011;3252;52.540;13.290;2023-04-23T05:57:57;6.43;;;4.80;;
6438;SDS011;3252;52.540;13.290;2023-04-23T06:00:00;7.90;;;4.57;;
6438;SDS011;3252;52.540;13.290;2023-04-23T06:02:14;12.30;;;5.57;;
6438;SDS011;3252;52.540;13.290;2023-04-23T06:04:16;7.30;;;4.90;;
6438;SDS011;3252;52.540;13.290;2023-04-23T06:06:18;8.17;;;4.77;;
6438;SDS011;3252;52.540;13.290;2023-04-23T06:08:20;7.17;;;4.73;;
6438;SDS011;3252;52.540;13.290;2023-04-23T06:10:23;9.43;;;4.83;;
6438;SDS011;3252;52.540;13.290;2023-04-23T06:12:25;8.57;;;5.30;;
6438;SDS011;3252;52.540;13.290;2023-04-23T06:14:27;9.23;;;5.17;;
6438;SDS011;3252;52.540;13.290;2023-04-23T06:16:29;7.93;;;5.03;;
6438;SDS011;3252;52.540;13.290;2023-04-23T06:18:33;9.67;;;5.00;;
6438;SDS011;3252;52.540;13.290;2023-04-23T06:20:35;6.97;;;4.87;;
6438;SDS011;3252;52.540;13.290;2023-04-23T06:22:37;10.73;;;5.20;;
6438;SDS011;3252;52.540;13.290;2023-04-23T06:24:39;11.53;;;5.60;;
6438;SDS011;3252;52.540;13.290;2023-04-23T06:26:42;10.03;;;5.20;;
6438;SDS011;3252;52.540;13.290;2023-04-23T06:28:50;7.07;;;4.60;;
6438;SDS011;3252;52.540;13.290;2023-04-23T06:30:58;9.43;;;5.13;;
6438;SDS011;3252;52.540;13.290;2023-04-23T06:33:02;15.57;;;10.53;;
6438;SDS011;3252;52.540;13.290;2023-04-23T06:35:06;10.80;;;7.80;;
6438;SDS011;3252;52.540;13.290;2023-04-23T06:37:09;10.00;;;5.30;;
6438;SDS011;3252;52.540;13.290;2023-04-23T06:39:11;7.83;;;5.27;;
6438;SDS011;3252;52.540;13.290;2023-04-23T06:41:13;7.37;;;5.37;;
6438;SDS011;3252;52.540;13.290;2023-04-23T06:43:15;9.07;;;4.80;;
6438;SDS011;3252;52.540;13.290;2023-04-23T06:45:40;8.87;;;6.20;;
6438;SDS011;3252;52.540;13.290;2023-04-23T06:47:43;9.60;;;5.53;;
6438;SDS011;3252;52.540;13.290;2023-04-23T06:49:45;7.87;;;4.87;;
6438;SDS011;3252;52.540;13.290;2023-04-23T06:51:48;9.60;;;5.33;;
6438;SDS011;3252;52.540;13.290;2023-04-23T06:53:50;7.30;;;4.87;;
6438;SDS011;3252;52.540;13.290;2023-04-23T06:55:53;13.33;;;8.40;;
6438;SDS011;3252;52.540;13.290;2023-04-23T06:57:55;15.63;;;9.80;;
6438;SDS011;3252;52.540;13.290;2023-04-23T06:59:58;7.73;;;4.30;;
6438;SDS011;3252;52.540;13.290;2023-04-23T07:02:06;6.40;;;4.70;;
6438;SDS011;3252;52.540;13.290;2023-04-23T07:04:08;7.93;;;5.30;;
6438;SDS011;3252;52.540;13.290;2023-04-23T07:06:11;6.10;;;4.33;;
6438;SDS011;3252;52.540;13.290;2023-04-23T07:08:15;6.33;;;4.43;;
6438;SDS011;3252;52.540;13.290;2023-04-23T07:10:17;6.60;;;4.53;;
6438;SDS011;3252;52.540;13.290;2023-04-23T07:12:20;5.43;;;4.13;;
6438;SDS011;3252;52.540;13.290;2023-04-23T07:14:22;8.07;;;4.60;;
6438;SDS011;3252;52.540;13.290;2023-04-23T07:16:24;9.00;;;5.60;;
6438;SDS011;3252;52.540;13.290;2023-04-23T07:18:28;9.07;;;5.23;;
6438;SDS011;3252;52.540;13.290;2023-04-23T07:20:31;9.63;;;5.10;;
6438;SDS011;3252;52.540;13.290;2023-04-23T07:22:33;6.80;;;4.87;;
6438;SDS011;3252;52.540;13.290;2023-04-23T07:24:37;9.70;;;4.77;;
6438;SDS011;3252;52.540;13.290;2023-04-23T07:26:40;9.23;;;5.87;;
6438;SDS011;3252;52.540;13.290;2023-04-23T07:28:42;9.13;;;5.70;;
6438;SDS011;3252;52.540;13.290;2023-04-23T07:30:46;9.20;;;6.70;;
6438;SDS011;3252;52.540;13.290;2023-04-23T07:32:49;5.87;;;4.80;;
6438;SDS011;3252;52.540;13.290;2023-04-23T07:34:51;7.33;;;4.80;;
6438;SDS011;3252;52.540;13.290;2023-04-23T07:36:54;7.20;;;4.63;;
6438;SDS011;3252;52.540;13.290;2023-04-23T07:38:57;8.67;;;4.67;;
6438;SDS011;3252;52.540;13.290;2023-04-23T07:41:00;10.87;;;5.33;;
6438;SDS011;3252;52.540;13.290;2023-04-23T07:43:03;12.57;;;5.77;;
6438;SDS011;3252;52.540;13.290;2023-04-23T07:45:05;6.53;;;5.20;;
6438;SDS011;3252;52.540;13.290;2023-04-23T07:47:08;27.77;;;21.10;;
6438;SDS011;3252;52.540;13.290;2023-04-23T07:49:10;12.00;;;7.80;;
6438;SDS011;3252;52.540;13.290;2023-04-23T07:51:13;17.37;;;14.93;;
6438;SDS011;3252;52.540;13.290;2023-04-23T07:53:16;7.33;;;5.73;;
6438;SDS011;3252;52.540;13.290;2023-04-23T07:55:18;6.50;;;5.17;;
6438;SDS011;3252;52.540;13.290;2023-04-23T07:57:22;8.50;;;5.20;;
6438;SDS011;3252;52.540;13.290;2023-04-23T07:59:24;11.67;;;6.83;;
6438;SDS011;3252;52.540;13.290;2023-04-23T08:01:26;12.53;;;7.90;;
6438;SDS011;3252;52.540;13.290;2023-04-23T08:03:29;9.53;;;6.10;;
6438;SDS011;3252;52.540;13.290;2023-04-23T08:05:31;8.87;;;5.67;;
6438;SDS011;3252;52.540;13.290;2023-04-23T08:07:33;7.77;;;5.30;;
6438;SDS011;3252;52.540;13.290;2023-04-23T08:09:35;7.33;;;5.03;;
6438;SDS011;3252;52.540;13.290;2023-04-23T08:11:37;8.33;;;5.73;;
6438;SDS011;3252;52.540;13.290;2023-04-23T08:13:41;9.20;;;6.30;;
6438;SDS011;3252;52.540;13.290;2023-04-23T08:15:43;9.73;;;5.90;;
6438;SDS011;3252;52.540;13.290;2023-04-23T08:17:45;7.67;;;5.60;;
6438;SDS011;3252;52.540;13.290;2023-04-23T08:19:47;14.70;;;5.93;;
6438;SDS011;3252;52.540;13.290;2023-04-23T08:21:49;7.63;;;5.40;;
6438;SDS011;3252;52.540;13.290;2023-04-23T08:23:52;10.00;;;5.67;;
6438;SDS011;3252;52.540;13.290;2023-04-23T08:25:54;10.80;;;7.77;;
6438;SDS011;3252;52.540;13.290;2023-04-23T08:27:57;10.60;;;7.80;;
6438;SDS011;3252;52.540;13.290;2023-04-23T08:30:00;8.80;;;5.90;;
6438;SDS011;3252;52.540;13.290;2023-04-23T08:32:02;8.63;;;5.43;;
6438;SDS011;3252;52.540;13.290;2023-04-23T08:34:04;7.00;;;5.53;;
6438;SDS011;3252;52.540;13.290;2023-04-23T08:36:07;8.17;;;5.30;;
6438;SDS011;3252;52.540;13.290;2023-04-23T08:38:09;9.17;;;5.43;;
6438;SDS011;3252;52.540;13.290;2023-04-23T08:40:11;10.37;;;5.63;;
6438;SDS011;3252;52.540;13.290;2023-04-23T08:42:14;7.80;;;5.43;;
6438;SDS011;3252;52.540;13.290;2023-04-23T08:44:25;8.00;;;6.33;;
6438;SDS011;3252;52.540;13.290;2023-04-23T08:46:30;6.43;;;5.57;;
6438;SDS011;3252;52.540;13.290;2023-04-23T08:48:33;8.73;;;5.70;;
6438;SDS011;3252;52.540;13.290;2023-04-23T08:50:36;7.80;;;6.63;;
6438;SDS011;3252;52.540;13.290;2023-04-23T08:52:39;8.90;;;7.00;;
6438;SDS011;3252;52.540;13.290;2023-04-23T08:54:44;7.13;;;5.60;;
6438;SDS011;3252;52.540;13.290;2023-04-23T08:56:50;7.53;;;6.30;;
6438;SDS011;3252;52.540;13.290;2023-04-23T08:58:52;8.97;;;6.33;;
6438;SDS011;3252;52.540;13.290;2023-04-23T09:00:55;17.27;;;12.90;;
6438;SDS011;3252;52.540;13.290;2023-04-23T09:02:59;8.47;;;6.87;;
6438;SDS011;3252;52.540;13.290;2023-04-23T09:05:01;8.33;;;6.47;;
6438;SDS011;3252;52.540;13.290;2023-04-23T09:07:04;922.90;;;320.93;;
6438;SDS011;3252;52.540;13.290;2023-04-23T09:09:10;787.37;;;599.10;;
6438;SDS011;3252;52.540;13.290;2023-04-23T09:11:15;1315.67;;;858.80;;
6438;SDS011;3252;52.540;13.290;2023-04-23T09:13:18;139.00;;;89.27;;
6438;SDS011;3252;52.540;13.290;2023-04-23T09:15:22;12.20;;;10.90;;
6438;SDS011;3252;52.540;13.290;2023-04-23T09:17:26;7.60;;;6.80;;
6438;SDS011;3252;52.540;13.290;2023-04-23T09:19:31;6.33;;;5.37;;
6438;SDS011;3252;52.540;13.290;2023-04-23T09:21:33;5.67;;;3.90;;
6438;SDS011;3252;52.540;13.290;2023-04-23T09:23:37;4.27;;;3.03;;
6438;SDS011;3252;52.540;13.290;2023-04-23T09:25:40;4.27;;;2.70;;
6438;SDS011;3252;52.540;13.290;2023-04-23T09:27:43;2.90;;;2.50;;
6438;SDS011;3252;52.540;13.290;2023-04-23T09:29:46;3.83;;;2.77;;
6438;SDS011;3252;52.540;13.290;2023-04-23T09:31:53;2.57;;;2.30;;
6438;SDS011;3252;52.540;13.290;2023-04-23T09:33:56;4.20;;;2.37;;
6438;SDS011;3252;52.540;13.290;2023-04-23T09:36:00;6.00;;;2.30;;
6438;SDS011;3252;52.540;13.290;2023-04-23T09:38:06;2.53;;;2.33;;
6438;SDS011;3252;52.540;13.290;2023-04-23T09:40:10;2.37;;;2.17;;
6438;SDS011;3252;52.540;13.290;2023-04-23T09:42:14;4.17;;;2.93;;
6438;SDS011;3252;52.540;13.290;2023-04-23T09:44:17;4.90;;;3.90;;
6438;SDS011;3252;52.540;13.290;2023-04-23T09:46:31;3.00;;;2.60;;
6438;SDS011;3252;52.540;13.290;2023-04-23T09:48:39;3.00;;;2.70;;
6438;SDS011;3252;52.540;13.290;2023-04-23T09:50:42;3.57;;;3.20;;
6438;SDS011;3252;52.540;13.290;2023-04-23T09:52:52;5.93;;;3.33;;
6438;SDS011;3252;52.540;13.290;2023-04-23T09:54:55;5.17;;;3.40;;
6438;SDS011;3252;52.540;13.290;2023-04-23T09:56:58;4.80;;;3.50;;
6438;SDS011;3252;52.540;13.290;2023-04-23T09:59:01;4.97;;;3.33;;
6438;SDS011;3252;52.540;13.290;2023-04-23T10:01:20;4.33;;;3.00;;
6438;SDS011;3252;52.540;13.290;2023-04-23T10:03:28;3.67;;;3.03;;
6438;SDS011;3252;52.540;13.290;2023-04-23T10:05:31;3.10;;;2.80;;
6438;SDS011;3252;52.540;13.290;2023-04-23T10:07:33;4.53;;;3.80;;
6438;SDS011;3252;52.540;13.290;2023-04-23T10:09:38;4.40;;;3.30;;
6438;SDS011;3252;52.540;13.290;2023-04-23T10:11:41;5.50;;;3.57;;
6438;SDS011;3252;52.540;13.290;2023-04-23T10:13:44;5.30;;;4.80;;
6438;SDS011;3252;52.540;13.290;2023-04-23T10:15:46;4.50;;;4.10;;
6438;SDS011;3252;52.540;13.290;2023-04-23T10:17:49;6.47;;;4.03;;
6438;SDS011;3252;52.540;13.290;2023-04-23T10:19:51;5.90;;;5.03;;
6438;SDS011;3252;52.540;13.290;2023-04-23T10:21:56;5.43;;;4.93;;
6438;SDS011;3252;52.540;13.290;2023-04-23T10:24:01;5.50;;;4.73;;
6438;SDS011;3252;52.540;13.290;2023-04-23T10:26:07;7.63;;;5.53;;
6438;SDS011;3252;52.540;13.290;2023-04-23T10:28:11;6.30;;;5.70;;
6438;SDS011;3252;52.540;13.290;2023-04-23T10:30:15;8.17;;;5.73;;
6438;SDS011;3252;52.540;13.290;2023-04-23T10:32:17;10.77;;;7.27;;
6438;SDS011;3252;52.540;13.290;2023-04-23T10:34:22;9.07;;;7.30;;
6438;SDS011;3252;52.540;13.290;2023-04-23T10:36:26;8.40;;;7.13;;
6438;SDS011;3252;52.540;13.290;2023-04-23T10:38:28;8.80;;;7.37;;
6438;SDS011;3252;52.540;13.290;2023-04-23T10:40:31;8.60;;;7.50;;
6438;SDS011;3252;52.540;13.290;2023-04-23T10:42:39;8.80;;;7.77;;
6438;SDS011;3252;52.540;13.290;2023-04-23T10:44:42;7.93;;;7.13;;
6438;SDS011;3252;52.540;13.290;2023-04-23T10:46:51;7.17;;;6.40;;
6438;SDS011;3252;52.540;13.290;2023-04-23T10:49:04;8.20;;;6.87;;
6438;SDS011;3252;52.540;13.290;2023-04-23T10:51:07;8.93;;;8.03;;
6438;SDS011;3252;52.540;13.290;2023-04-23T10:53:16;9.90;;;6.57;;
6438;SDS011;3252;52.540;13.290;2023-04-23T10:55:20;7.30;;;6.33;;
6438;SDS011;3252;52.540;13.290;2023-04-23T10:57:24;9.53;;;6.67;;
6438;SDS011;3252;52.540;13.290;2023-04-23T10:59:28;10.07;;;6.67;;
6438;SDS011;3252;52.540;13.290;2023-04-23T11:01:31;7.33;;;6.63;;
6438;SDS011;3252;52.540;13.290;2023-04-23T11:03:35;11.43;;;7.80;;
6438;SDS011;3252;52.540;13.290;2023-04-23T11:05:41;9.10;;;8.03;;
6438;SDS011;3252;52.540;13.290;2023-04-23T11:10:09;12.10;;;8.23;;
6438;SDS011;3252;52.540;13.290;2023-04-23T11:12:13;10.53;;;8.17;;
6438;SDS011;3252;52.540;13.290;2023-04-23T11:14:33;10.60;;;9.20;;
6438;SDS011;3252;52.540;13.290;2023-04-23T11:16:36;12.37;;;8.80;;
6438;SDS011;3252;52.540;13.290;2023-04-23T11:18:57;10.10;;;9.10;;
6438;SDS011;3252;52.540;13.290;2023-04-23T11:21:06;8.47;;;7.57;;
6438;SDS011;3252;52.540;13.290;2023-04-23T11:23:09;10.10;;;8.67;;
6438;SDS011;3252;52.540;13.290;2023-04-23T11:25:32;9.53;;;8.33;;
6438;SDS011;3252;52.540;13.290;2023-04-23T11:27:37;11.53;;;8.60;;
6438;SDS011;3252;52.540;13.290;2023-04-23T11:29:42;8.73;;;7.83;;
6438;SDS011;3252;52.540;13.290;2023-04-23T11:31:46;9.43;;;8.43;;
6438;SDS011;3252;52.540;13.290;2023-04-23T11:33:49;8.77;;;7.57;;
6438;SDS011;3252;52.540;13.290;2023-04-23T11:35:51;9.80;;;8.40;;
6438;SDS011;3252;52.540;13.290;2023-04-23T11:37:53;8.47;;;7.33;;
6438;SDS011;3252;52.540;13.290;2023-04-23T11:39:56;7.97;;;6.67;;
6438;SDS011;3252;52.540;13.290;2023-04-23T11:41:58;7.03;;;6.33;;
6438;SDS011;3252;52.540;13.290;2023-04-23T11:44:02;8.13;;;6.70;;
6438;SDS011;3252;52.540;13.290;2023-04-23T11:46:07;9.63;;;7.93;;
6438;SDS011;3252;52.540;13.290;2023-04-23T11:48:09;8.93;;;7.63;;
6438;SDS011;3252;52.540;13.290;2023-04-23T11:50:16;8.53;;;7.33;;
6438;SDS011;3252;52.540;13.290;2023-04-23T11:52:19;8.50;;;7.60;;
6438;SDS011;3252;52.540;13.290;2023-04-23T11:54:24;9.23;;;8.33;;
6438;SDS011;3252;52.540;13.290;2023-04-23T11:56:29;9.37;;;7.60;;
6438;SDS011;3252;52.540;13.290;2023-04-23T11:58:31;8.43;;;6.83;;
6438;SDS011;3252;52.540;13.290;2023-04-23T12:00:34;10.43;;;7.57;;
6438;SDS011;3252;52.540;13.290;2023-04-23T12:02:38;11.13;;;8.17;;
6438;SDS011;3252;52.540;13.290;2023-04-23T12:04:50;9.37;;;7.40;;
6438;SDS011;3252;52.540;13.290;2023-04-23T12:06:54;8.13;;;7.33;;
6438;SDS011;3252;52.540;13.290;2023-04-23T12:08:57;7.57;;;6.50;;
6438;SDS011;3252;52.540;13.290;2023-04-23T12:11:00;6.80;;;6.07;;
6438;SDS011;3252;52.540;13.290;2023-04-23T12:13:05;7.10;;;5.93;;
6438;SDS011;3252;52.540;13.290;2023-04-23T12:15:07;12.50;;;9.83;;
6438;SDS011;3252;52.540;13.290;2023-04-23T12:17:10;7.50;;;6.80;;
6438;SDS011;3252;52.540;13.290;2023-04-23T12:19:14;8.83;;;7.93;;
6438;SDS011;3252;52.540;13.290;2023-04-23T12:21:18;9.43;;;6.30;;
6438;SDS011;3252;52.540;13.290;2023-04-23T12:23:24;8.00;;;7.10;;
6438;SDS011;3252;52.540;13.290;2023-04-23T12:25:27;8.83;;;7.20;;
6438;SDS011;3252;52.540;13.290;2023-04-23T12:27:29;9.87;;;7.63;;
6438;SDS011;3252;52.540;13.290;2023-04-23T12:29:33;6.43;;;5.73;;
6438;SDS011;3252;52.540;13.290;2023-04-23T12:31:36;7.73;;;5.83;;
6438;SDS011;3252;52.540;13.290;2023-04-23T12:33:39;6.20;;;5.30;;